sensor_id;sensor_type;location;lat;lon;timestamp;pressure;altitude;pressure_sealevel;temperature;humidity
8890;BME280;4481;43.406;24.454;2023-03-31T00:00:57;77456.47;;;-144.09;83.36
8890;BME280;4481;43.406;24.454;2023-03-31T00:03:25;77462.75;;;-144.09;83.72
8890;BME280;4481;43.406;24.454;2023-03-31T00:05:54;77446.03;;;-144.09;83.82
8890;BME280;4481;43.406;24.454;2023-03-31T00:08:22;77448.13;;;-144.09;83.09
8890;BME280;4481;43.406;24.454;2023-03-31T00:10:49;77448.13;;;-144.09;82.80
8890;BME280;4481;43.406;24.454;2023-03-31T00:13:16;77456.47;;;-144.09;83.17
8890;BME280;4481;43.406;24.454;2023-03-31T00:15:42;77441.84;;;-144.09;83.76
8890;BME280;4481;43.406;24.454;2023-03-31T00:18:08;77420.94;;;-144.09;83.20
8890;BME280;4481;43.406;24.454;2023-03-31T00:20:34;77420.94;;;-144.09;83.28
8890;BME280;4481;43.406;24.454;2023-03-31T00:23:02;77404.22;;;-144.09;82.75
8890;BME280;4481;43.406;24.454;2023-03-31T00:25:30;77427.22;;;-144.09;84.28
8890;BME280;4481;43.406;24.454;2023-03-31T00:27:57;77448.13;;;-144.09;85.07
8890;BME280;4481;43.406;24.454;2023-03-31T00:30:23;77454.38;;;-144.09;84.77
8890;BME280;4481;43.406;24.454;2023-03-31T00:32:49;77448.13;;;-144.09;84.43
8890;BME280;4481;43.406;24.454;2023-03-31T00:35:16;77429.31;;;-144.09;83.86
8890;BME280;4481;43.406;24.454;2023-03-31T00:37:42;77406.31;;;-144.09;82.94
8890;BME280;4481;43.406;24.454;2023-03-31T00:40:10;77393.78;;;-144.09;81.97
8890;BME280;4481;43.406;24.454;2023-03-31T00:42:39;77377.06;;;-144.09;81.92
8890;BME280;4481;43.406;24.454;2023-03-31T00:45:23;77404.22;;;-144.09;83.35
8890;BME280;4481;43.406;24.454;2023-03-31T00:47:51;77429.31;;;-144.09;84.34
8890;BME280;4481;43.406;24.454;2023-03-31T00:50:22;77425.13;;;-144.09;84.43
8890;BME280;4481;43.406;24.454;2023-03-31T00:52:54;77429.31;;;-144.09;84.17
8890;BME280;4481;43.406;24.454;2023-03-31T00:55:24;77414.66;;;-144.09;83.89
8890;BME280;4481;43.406;24.454;2023-03-31T00:57:53;77416.75;;;-144.09;84.60
8890;BME280;4481;43.406;24.454;2023-03-31T01:00:21;77446.03;;;-144.09;87.63
8890;BME280;4481;43.406;24.454;2023-03-31T01:02:51;77458.56;;;-144.09;88.83
8890;BME280;4481;43.406;24.454;2023-03-31T01:05:23;77452.28;;;-144.09;89.12
8890;BME280;4481;43.406;24.454;2023-03-31T01:07:51;77460.66;;;-144.09;89.43
8890;BME280;4481;43.406;24.454;2023-03-31T01:10:19;77469.00;;;-144.09;90.42
8890;BME280;4481;43.406;24.454;2023-03-31T01:12:48;77477.38;;;-144.09;90.34
8890;BME280;4481;43.406;24.454;2023-03-31T01:15:15;77462.75;;;-144.09;89.64
8890;BME280;4481;43.406;24.454;2023-03-31T01:17:42;77456.47;;;-144.09;90.05
8890;BME280;4481;43.406;24.454;2023-03-31T01:20:17;77450.19;;;-144.09;89.14
8890;BME280;4481;43.406;24.454;2023-03-31T01:23:13;77433.47;;;-144.09;88.28
8890;BME280;4481;43.406;24.454;2023-03-31T01:29:03;77420.94;;;-144.09;87.07
8890;BME280;4481;43.406;24.454;2023-03-31T01:32:06;77427.22;;;-144.09;87.60
8890;BME280;4481;43.406;24.454;2023-03-31T01:35:00;77387.50;;;-144.09;83.06
8890;BME280;4481;43.406;24.454;2023-03-31T01:38:08;77383.31;;;-144.09;82.67
8890;BME280;4481;43.406;24.454;2023-03-31T01:40:58;77377.06;;;-144.09;84.62
8890;BME280;4481;43.406;24.454;2023-03-31T01:43:33;77372.88;;;-144.09;84.47
8890;BME280;4481;43.406;24.454;2023-03-31T01:46:09;77379.13;;;-144.09;83.96
8890;BME280;4481;43.406;24.454;2023-03-31T01:48:47;77354.06;;;-144.09;83.45
8890;BME280;4481;43.406;24.454;2023-03-31T01:51:19;77370.78;;;-144.09;83.34
8890;BME280;4481;43.406;24.454;2023-03-31T01:53:49;77408.41;;;-144.09;84.70
8890;BME280;4481;43.406;24.454;2023-03-31T01:56:22;77408.41;;;-144.09;84.93
8890;BME280;4481;43.406;24.454;2023-03-31T01:58:53;77395.88;;;-144.09;84.68
8890;BME280;4481;43.406;24.454;2023-03-31T02:01:27;77387.50;;;-144.09;83.80
8890;BME280;4481;43.406;24.454;2023-03-31T02:03:58;77385.41;;;-144.09;82.80
8890;BME280;4481;43.406;24.454;2023-03-31T02:06:32;77389.59;;;-144.09;84.24
8890;BME280;4481;43.406;24.454;2023-03-31T02:09:02;77383.31;;;-144.09;84.05
8890;BME280;4481;43.406;24.454;2023-03-31T02:11:31;77370.78;;;-144.09;83.70
8890;BME280;4481;43.406;24.454;2023-03-31T02:13:59;77372.88;;;-144.09;83.51
8890;BME280;4481;43.406;24.454;2023-03-31T02:16:28;77354.06;;;-144.09;82.29
8890;BME280;4481;43.406;24.454;2023-03-31T02:18:58;77358.25;;;-144.09;81.59
8890;BME280;4481;43.406;24.454;2023-03-31T02:21:31;77374.97;;;-144.09;81.97
8890;BME280;4481;43.406;24.454;2023-03-31T02:24:00;77370.78;;;-144.09;82.06
8890;BME280;4481;43.406;24.454;2023-03-31T02:26:30;77385.41;;;-144.09;82.75
8890;BME280;4481;43.406;24.454;2023-03-31T02:29:01;77368.69;;;-144.09;82.49
8890;BME280;4481;43.406;24.454;2023-03-31T02:31:35;77349.88;;;-144.09;81.69
8890;BME280;4481;43.406;24.454;2023-03-31T02:34:03;77345.69;;;-144.09;81.33
8890;BME280;4481;43.406;24.454;2023-03-31T02:36:30;77343.59;;;-144.09;81.56
8890;BME280;4481;43.406;24.454;2023-03-31T02:38:59;77320.63;;;-144.09;81.31
8890;BME280;4481;43.406;24.454;2023-03-31T02:41:27;77303.91;;;-144.09;79.94
8890;BME280;4481;43.406;24.454;2023-03-31T02:43:54;77301.81;;;-144.09;79.87
8890;BME280;4481;43.406;24.454;2023-03-31T02:46:21;77310.16;;;-144.09;80.25
8890;BME280;4481;43.406;24.454;2023-03-31T02:48:50;77306.00;;;-144.09;77.89
8890;BME280;4481;43.406;24.454;2023-03-31T02:51:48;77295.53;;;-144.09;77.67
8890;BME280;4481;43.406;24.454;2023-03-31T02:57:36;77320.63;;;-144.09;80.13
8890;BME280;4481;43.406;24.454;2023-03-31T03:00:13;77331.06;;;-144.09;82.32
8890;BME280;4481;43.406;24.454;2023-03-31T03:02:54;77318.53;;;-144.09;82.83
8890;BME280;4481;43.406;24.454;2023-03-31T03:05:29;77362.41;;;-144.09;87.18
8890;BME280;4481;43.406;24.454;2023-03-31T03:08:08;77379.13;;;-144.09;88.87
8890;BME280;4481;43.406;24.454;2023-03-31T03:10:49;77364.50;;;-144.09;89.30
8890;BME280;4481;43.406;24.454;2023-03-31T03:13:23;77362.41;;;-144.09;89.79
8890;BME280;4481;43.406;24.454;2023-03-31T03:15:57;77356.16;;;-144.09;87.40
8890;BME280;4481;43.406;24.454;2023-03-31T03:18:25;77370.78;;;-144.09;88.03
8890;BME280;4481;43.406;24.454;2023-03-31T03:20:51;77395.88;;;-144.09;89.51
8890;BME280;4481;43.406;24.454;2023-03-31T03:23:18;77397.94;;;-144.09;91.38
8890;BME280;4481;43.406;24.454;2023-03-31T03:25:44;77381.22;;;-144.09;91.74
8890;BME280;4481;43.406;24.454;2023-03-31T03:28:11;77370.78;;;-144.09;92.94
8890;BME280;4481;43.406;24.454;2023-03-31T03:30:37;77360.34;;;-144.09;92.67
8890;BME280;4481;43.406;24.454;2023-03-31T03:33:04;77366.59;;;-144.09;93.51
8890;BME280;4481;43.406;24.454;2023-03-31T03:35:31;77391.69;;;-144.09;95.39
8890;BME280;4481;43.406;24.454;2023-03-31T03:37:57;77383.31;;;-144.09;94.89
8890;BME280;4481;43.406;24.454;2023-03-31T03:40:23;77393.78;;;-144.09;95.34
8890;BME280;4481;43.406;24.454;2023-03-31T03:42:49;77391.69;;;-144.09;95.87
8890;BME280;4481;43.406;24.454;2023-03-31T03:45:15;77387.50;;;-144.09;96.66
8890;BME280;4481;43.406;24.454;2023-03-31T03:47:42;77395.88;;;-144.09;98.68
8890;BME280;4481;43.406;24.454;2023-03-31T03:50:09;77391.69;;;-144.09;99.09
8890;BME280;4481;43.406;24.454;2023-03-31T03:52:38;77387.50;;;-144.09;98.96
8890;BME280;4481;43.406;24.454;2023-03-31T03:55:05;77387.50;;;-144.09;99.47
8890;BME280;4481;43.406;24.454;2023-03-31T03:57:31;77366.59;;;-144.09;98.92
8890;BME280;4481;43.406;24.454;2023-03-31T03:59:57;77374.97;;;-144.09;99.81
8890;BME280;4481;43.406;24.454;2023-03-31T04:02:23;77391.69;;;-144.09;100.00
8890;BME280;4481;43.406;24.454;2023-03-31T04:04:49;77377.06;;;-144.09;100.00
8890;BME280;4481;43.406;24.454;2023-03-31T04:07:17;77381.22;;;-144.09;100.00
8890;BME280;4481;43.406;24.454;2023-03-31T04:09:44;77362.41;;;-144.09;100.00
8890;BME280;4481;43.406;24.454;2023-03-31T04:12:10;77360.34;;;-144.09;100.00
8890;BME280;4481;43.406;24.454;2023-03-31T04:14:36;77351.97;;;-144.09;100.00
8890;BME280;4481;43.406;24.454;2023-03-31T04:17:02;77349.88;;;-144.09;100.00
8890;BME280;4481;43.406;24.454;2023-03-31T04:19:28;77360.34;;;-144.09;100.00
8890;BME280;4481;43.406;24.454;2023-03-31T04:21:54;77383.31;;;-144.09;100.00
8890;BME280;4481;43.406;24.454;2023-03-31T04:24:27;77356.16;;;-144.09;100.00
8890;BME280;4481;43.406;24.454;2023-03-31T04:26:57;77360.34;;;-144.09;100.00
8890;BME280;4481;43.406;24.454;2023-03-31T04:29:24;77351.97;;;-144.09;100.00
8890;BME280;4481;43.406;24.454;2023-03-31T04:31:51;77358.25;;;-144.09;100.00
8890;BME280;4481;43.406;24.454;2023-03-31T04:34:18;77374.97;;;-144.09;100.00
8890;BME280;4481;43.406;24.454;2023-03-31T04:36:46;77389.59;;;-144.09;100.00
8890;BME280;4481;43.406;24.454;2023-03-31T04:39:13;77393.78;;;-144.09;100.00
8890;BME280;4481;43.406;24.454;2023-03-31T04:41:40;77374.97;;;-144.09;100.00
8890;BME280;4481;43.406;24.454;2023-03-31T04:44:07;77379.13;;;-144.09;100.00
8890;BME280;4481;43.406;24.454;2023-03-31T04:46:34;77366.59;;;-144.09;100.00
8890;BME280;4481;43.406;24.454;2023-03-31T04:49:00;77370.78;;;-144.09;100.00
8890;BME280;4481;43.406;24.454;2023-03-31T04:51:27;77354.06;;;-144.09;100.00
8890;BME280;4481;43.406;24.454;2023-03-31T04:53:54;77366.59;;;-144.09;100.00
8890;BME280;4481;43.406;24.454;2023-03-31T04:56:21;77351.97;;;-144.09;100.00
8890;BME280;4481;43.406;24.454;2023-03-31T04:58:48;77377.06;;;-144.09;100.00
8890;BME280;4481;43.406;24.454;2023-03-31T05:01:16;77377.06;;;-144.09;100.00
8890;BME280;4481;43.406;24.454;2023-03-31T05:03:43;77393.78;;;-144.09;100.00
8890;BME280;4481;43.406;24.454;2023-03-31T05:06:09;77410.50;;;-144.09;100.00
8890;BME280;4481;43.406;24.454;2023-03-31T05:08:36;77420.94;;;-144.09;100.00
8890;BME280;4481;43.406;24.454;2023-03-31T05:11:02;77368.69;;;-144.09;100.00
8890;BME280;4481;43.406;24.454;2023-03-31T05:13:29;77324.81;;;-144.09;100.00
8890;BME280;4481;43.406;24.454;2023-03-31T05:15:57;77299.72;;;-144.09;100.00
8890;BME280;4481;43.406;24.454;2023-03-31T05:18:23;77276.72;;;-144.09;100.00
8890;BME280;4481;43.406;24.454;2023-03-31T05:20:49;77268.38;;;-144.09;100.00
8890;BME280;4481;43.406;24.454;2023-03-31T05:23:15;77270.47;;;-144.09;100.00
8890;BME280;4481;43.406;24.454;2023-03-31T05:25:42;77280.91;;;-144.09;100.00
8890;BME280;4481;43.406;24.454;2023-03-31T05:28:08;77260.00;;;-144.09;100.00
8890;BME280;4481;43.406;24.454;2023-03-31T05:30:34;77249.56;;;-144.09;100.00
8890;BME280;4481;43.406;24.454;2023-03-31T05:33:01;77245.38;;;-144.09;100.00
8890;BME280;4481;43.406;24.454;2023-03-31T05:35:27;77237.03;;;-144.09;100.00
8890;BME280;4481;43.406;24.454;2023-03-31T05:37:54;77224.47;;;-144.09;100.00
8890;BME280;4481;43.406;24.454;2023-03-31T05:40:20;77205.66;;;-144.09;100.00
8890;BME280;4481;43.406;24.454;2023-03-31T05:42:46;77193.13;;;-144.09;100.00
8890;BME280;4481;43.406;24.454;2023-03-31T05:45:12;77186.84;;;-144.09;100.00
8890;BME280;4481;43.406;24.454;2023-03-31T05:47:39;77155.50;;;-144.09;100.00
8890;BME280;4481;43.406;24.454;2023-03-31T05:50:07;77128.34;;;-144.09;100.00
8890;BME280;4481;43.406;24.454;2023-03-31T05:52:34;77122.06;;;-144.09;100.00
8890;BME280;4481;43.406;24.454;2023-03-31T05:55:00;77103.25;;;-144.09;100.00
8890;BME280;4481;43.406;24.454;2023-03-31T05:57:26;77076.09;;;-144.09;100.00
8890;BME280;4481;43.406;24.454;2023-03-31T05:59:53;77084.47;;;-144.09;100.00
8890;BME280;4481;43.406;24.454;2023-03-31T06:02:19;77046.84;;;-144.09;100.00
8890;BME280;4481;43.406;24.454;2023-03-31T06:04:45;77028.03;;;-144.09;100.00
8890;BME280;4481;43.406;24.454;2023-03-31T06:07:12;77036.38;;;-144.09;100.00
8890;BME280;4481;43.406;24.454;2023-03-31T06:09:39;77040.56;;;-144.09;100.00
8890;BME280;4481;43.406;24.454;2023-03-31T06:12:06;77036.38;;;-144.09;100.00
8890;BME280;4481;43.406;24.454;2023-03-31T06:14:32;77011.31;;;-144.09;100.00
8890;BME280;4481;43.406;24.454;2023-03-31T06:16:59;76975.78;;;-144.09;100.00
8890;BME280;4481;43.406;24.454;2023-03-31T06:19:25;76965.34;;;-144.09;100.00
8890;BME280;4481;43.406;24.454;2023-03-31T06:21:52;76973.69;;;-144.09;100.00
8890;BME280;4481;43.406;24.454;2023-03-31T06:24:19;76959.06;;;-144.09;100.00
8890;BME280;4481;43.406;24.454;2023-03-31T06:26:46;76944.44;;;-144.09;100.00
8890;BME280;4481;43.406;24.454;2023-03-31T06:29:12;76925.63;;;-144.09;100.00
8890;BME280;4481;43.406;24.454;2023-03-31T06:31:38;76921.44;;;-144.09;100.00
8890;BME280;4481;43.406;24.454;2023-03-31T06:34:04;76925.63;;;-144.09;100.00
8890;BME280;4481;43.406;24.454;2023-03-31T06:36:31;76898.47;;;-144.09;100.00
8890;BME280;4481;43.406;24.454;2023-03-31T06:38:57;76894.28;;;-144.09;100.00
8890;BME280;4481;43.406;24.454;2023-03-31T06:41:24;76908.91;;;-144.09;100.00
8890;BME280;4481;43.406;24.454;2023-03-31T06:43:51;76919.34;;;-144.09;100.00
8890;BME280;4481;43.406;24.454;2023-03-31T06:46:17;76898.47;;;-144.09;100.00
8890;BME280;4481;43.406;24.454;2023-03-31T06:48:43;76892.19;;;-144.09;100.00
8890;BME280;4481;43.406;24.454;2023-03-31T06:51:09;76869.19;;;-144.09;100.00
8890;BME280;4481;43.406;24.454;2023-03-31T06:53:36;76850.41;;;-144.09;100.00
8890;BME280;4481;43.406;24.454;2023-03-31T06:56:02;76819.06;;;-144.09;100.00
8890;BME280;4481;43.406;24.454;2023-03-31T06:58:29;76791.88;;;-144.09;100.00
8890;BME280;4481;43.406;24.454;2023-03-31T07:00:55;76781.44;;;-144.09;100.00
8890;BME280;4481;43.406;24.454;2023-03-31T07:03:22;76777.25;;;-144.09;100.00
8890;BME280;4481;43.406;24.454;2023-03-31T07:05:50;76752.19;;;-144.09;100.00
8890;BME280;4481;43.406;24.454;2023-03-31T07:08:19;76710.38;;;-144.09;100.00
8890;BME280;4481;43.406;24.454;2023-03-31T07:10:46;76670.69;;;-144.09;100.00
8890;BME280;4481;43.406;24.454;2023-03-31T07:13:13;76662.31;;;-144.09;100.00
8890;BME280;4481;43.406;24.454;2023-03-31T07:15:41;76633.06;;;-144.09;99.16
8890;BME280;4481;43.406;24.454;2023-03-31T07:18:07;76620.53;;;-144.09;98.92
8890;BME280;4481;43.406;24.454;2023-03-31T07:20:34;76603.81;;;-144.09;98.65
8890;BME280;4481;43.406;24.454;2023-03-31T07:23:03;76574.56;;;-144.09;98.55
8890;BME280;4481;43.406;24.454;2023-03-31T07:25:30;76587.09;;;-144.09;98.24
8890;BME280;4481;43.406;24.454;2023-03-31T07:27:56;76616.34;;;-144.09;99.44
8890;BME280;4481;43.406;24.454;2023-03-31T07:30:23;76614.25;;;-144.09;99.78
8890;BME280;4481;43.406;24.454;2023-03-31T07:32:50;76595.47;;;-144.09;100.00
8890;BME280;4481;43.406;24.454;2023-03-31T07:35:18;76559.94;;;-144.09;99.26
8890;BME280;4481;43.406;24.454;2023-03-31T07:37:46;76566.19;;;-144.09;98.77
8890;BME280;4481;43.406;24.454;2023-03-31T07:40:14;76539.03;;;-144.09;98.25
8890;BME280;4481;43.406;24.454;2023-03-31T07:42:41;76522.31;;;-144.09;98.18
8890;BME280;4481;43.406;24.454;2023-03-31T07:45:08;76513.97;;;-144.09;98.42
8890;BME280;4481;43.406;24.454;2023-03-31T07:47:34;76472.19;;;-144.09;96.66
8890;BME280;4481;43.406;24.454;2023-03-31T07:50:01;76449.19;;;-144.09;96.63
8890;BME280;4481;43.406;24.454;2023-03-31T07:52:27;76451.28;;;-144.09;96.72
8890;BME280;4481;43.406;24.454;2023-03-31T07:54:53;76445.00;;;-144.09;96.42
8890;BME280;4481;43.406;24.454;2023-03-31T07:57:19;76434.56;;;-144.09;96.64
8890;BME280;4481;43.406;24.454;2023-03-31T07:59:46;76405.31;;;-144.09;96.10
8890;BME280;4481;43.406;24.454;2023-03-31T08:02:14;76378.16;;;-144.09;94.79
8890;BME280;4481;43.406;24.454;2023-03-31T08:04:41;76357.25;;;-144.09;92.60
8890;BME280;4481;43.406;24.454;2023-03-31T08:07:09;76373.97;;;-144.09;92.68
8890;BME280;4481;43.406;24.454;2023-03-31T08:09:36;76361.44;;;-144.09;91.21
8890;BME280;4481;43.406;24.454;2023-03-31T08:12:03;76376.06;;;-144.09;90.06
8890;BME280;4481;43.406;24.454;2023-03-31T08:14:29;76382.31;;;-144.09;89.95
8890;BME280;4481;43.406;24.454;2023-03-31T08:16:55;76359.34;;;-144.09;89.74
8890;BME280;4481;43.406;24.454;2023-03-31T08:19:22;76328.00;;;-144.09;89.54
8890;BME280;4481;43.406;24.454;2023-03-31T08:21:48;76296.66;;;-144.09;89.87
8890;BME280;4481;43.406;24.454;2023-03-31T08:24:16;76261.13;;;-144.09;89.25
8890;BME280;4481;43.406;24.454;2023-03-31T08:26:42;76233.97;;;-144.09;88.27
8890;BME280;4481;43.406;24.454;2023-03-31T08:29:09;76198.47;;;-144.09;88.19
8890;BME280;4481;43.406;24.454;2023-03-31T08:31:35;76190.09;;;-144.09;86.45
8890;BME280;4481;43.406;24.454;2023-03-31T08:34:01;76183.84;;;-144.09;86.27
8890;BME280;4481;43.406;24.454;2023-03-31T08:36:29;76150.41;;;-144.09;86.55
8890;BME280;4481;43.406;24.454;2023-03-31T08:38:55;76112.78;;;-144.09;87.01
8890;BME280;4481;43.406;24.454;2023-03-31T08:41:41;76108.63;;;-144.09;86.18
8890;BME280;4481;43.406;24.454;2023-03-31T08:44:15;76110.72;;;-144.09;87.22
8890;BME280;4481;43.406;24.454;2023-03-31T08:46:44;76083.53;;;-144.09;86.25
8890;BME280;4481;43.406;24.454;2023-03-31T08:49:13;76050.13;;;-144.09;85.28
8890;BME280;4481;43.406;24.454;2023-03-31T08:51:42;76048.03;;;-144.09;85.90
8890;BME280;4481;43.406;24.454;2023-03-31T08:54:16;76020.88;;;-144.09;84.02
8890;BME280;4481;43.406;24.454;2023-03-31T08:56:47;76014.59;;;-144.09;83.17
8890;BME280;4481;43.406;24.454;2023-03-31T08:59:18;76077.28;;;-144.09;83.40
8890;BME280;4481;43.406;24.454;2023-03-31T09:01:49;76094.00;;;-144.09;84.85
8890;BME280;4481;43.406;24.454;2023-03-31T09:04:28;76110.72;;;-144.09;84.01
8890;BME280;4481;43.406;24.454;2023-03-31T09:07:04;76137.88;;;-144.09;83.10
8890;BME280;4481;43.406;24.454;2023-03-31T09:09:42;76173.38;;;-144.09;83.63
8890;BME280;4481;43.406;24.454;2023-03-31T09:12:15;76190.09;;;-144.09;83.39
8890;BME280;4481;43.406;24.454;2023-03-31T09:14:50;76183.84;;;-144.09;82.33
8890;BME280;4481;43.406;24.454;2023-03-31T09:17:25;76150.41;;;-144.09;82.27
8890;BME280;4481;43.406;24.454;2023-03-31T09:19:55;76125.34;;;-144.09;82.21
8890;BME280;4481;43.406;24.454;2023-03-31T09:22:26;76106.53;;;-144.09;81.09
8890;BME280;4481;43.406;24.454;2023-03-31T09:24:58;76073.09;;;-144.09;81.08
8890;BME280;4481;43.406;24.454;2023-03-31T09:27:30;76068.94;;;-144.09;80.40
8890;BME280;4481;43.406;24.454;2023-03-31T09:30:02;76043.84;;;-144.09;79.58
8890;BME280;4481;43.406;24.454;2023-03-31T09:32:31;76043.84;;;-144.09;80.04
8890;BME280;4481;43.406;24.454;2023-03-31T09:35:00;76068.94;;;-144.09;80.58
8890;BME280;4481;43.406;24.454;2023-03-31T09:37:30;76066.84;;;-144.09;78.03
8890;BME280;4481;43.406;24.454;2023-03-31T09:39:58;76081.47;;;-144.09;78.59
8890;BME280;4481;43.406;24.454;2023-03-31T09:42:25;76075.19;;;-144.09;77.91
8890;BME280;4481;43.406;24.454;2023-03-31T09:44:52;76031.31;;;-144.09;73.96
8890;BME280;4481;43.406;24.454;2023-03-31T09:47:26;76002.06;;;-144.09;71.79
8890;BME280;4481;43.406;24.454;2023-03-31T09:49:53;75977.00;;;-144.09;66.97
8890;BME280;4481;43.406;24.454;2023-03-31T09:52:25;75943.56;;;-144.09;66.37
8890;BME280;4481;43.406;24.454;2023-03-31T09:54:53;75916.41;;;-144.09;65.13
8890;BME280;4481;43.406;24.454;2023-03-31T09:57:26;75935.22;;;-144.09;64.56
8890;BME280;4481;43.406;24.454;2023-03-31T10:00:01;75933.13;;;-144.09;63.87
8890;BME280;4481;43.406;24.454;2023-03-31T10:02:38;75910.16;;;-144.09;62.90
8890;BME280;4481;43.406;24.454;2023-03-31T10:05:16;75972.81;;;-144.09;63.86
8890;BME280;4481;43.406;24.454;2023-03-31T10:07:44;75970.72;;;-144.09;63.85
8890;BME280;4481;43.406;24.454;2023-03-31T10:10:22;75956.09;;;-144.09;64.32
8890;BME280;4481;43.406;24.454;2023-03-31T10:12:52;75943.56;;;-144.09;62.92
8890;BME280;4481;43.406;24.454;2023-03-31T10:15:21;75928.94;;;-144.09;63.52
8890;BME280;4481;43.406;24.454;2023-03-31T10:17:49;75899.69;;;-144.09;63.50
8890;BME280;4481;43.406;24.454;2023-03-31T10:20:29;75876.72;;;-144.09;63.17
8890;BME280;4481;43.406;24.454;2023-03-31T10:23:01;75878.81;;;-144.09;62.34
8890;BME280;4481;43.406;24.454;2023-03-31T10:25:28;75889.25;;;-144.09;62.25
8890;BME280;4481;43.406;24.454;2023-03-31T10:27:55;75885.06;;;-144.09;63.08
8890;BME280;4481;43.406;24.454;2023-03-31T10:30:24;75880.91;;;-144.09;62.39
8890;BME280;4481;43.406;24.454;2023-03-31T10:32:51;75916.41;;;-144.09;62.73
8890;BME280;4481;43.406;24.454;2023-03-31T10:35:23;75908.06;;;-144.09;64.22
8890;BME280;4481;43.406;24.454;2023-03-31T10:37:53;75908.06;;;-144.09;63.30
8890;BME280;4481;43.406;24.454;2023-03-31T10:40:21;75891.34;;;-144.09;62.66
8890;BME280;4481;43.406;24.454;2023-03-31T10:42:57;75880.91;;;-144.09;63.21
8890;BME280;4481;43.406;24.454;2023-03-31T10:45:27;75870.44;;;-144.09;62.65
8890;BME280;4481;43.406;24.454;2023-03-31T10:47:55;75843.28;;;-144.09;63.63
8890;BME280;4481;43.406;24.454;2023-03-31T10:50:26;75874.63;;;-144.09;62.68
8890;BME280;4481;43.406;24.454;2023-03-31T10:53:00;75872.53;;;-144.09;62.44
8890;BME280;4481;43.406;24.454;2023-03-31T10:55:32;75882.97;;;-144.09;62.05
8890;BME280;4481;43.406;24.454;2023-03-31T10:58:02;75870.44;;;-144.09;62.38
8890;BME280;4481;43.406;24.454;2023-03-31T11:00:36;75851.66;;;-144.09;62.55
8890;BME280;4481;43.406;24.454;2023-03-31T11:06:11;75788.97;;;-144.09;61.87
8890;BME280;4481;43.406;24.454;2023-03-31T11:08:48;75776.44;;;-144.09;60.28
8890;BME280;4481;43.406;24.454;2023-03-31T11:11:29;75805.69;;;-144.09;61.48
8890;BME280;4481;43.406;24.454;2023-03-31T11:14:04;75805.69;;;-144.09;60.24
8890;BME280;4481;43.406;24.454;2023-03-31T11:16:43;75795.25;;;-144.09;60.76
8890;BME280;4481;43.406;24.454;2023-03-31T11:19:24;75795.25;;;-144.09;58.22
8890;BME280;4481;43.406;24.454;2023-03-31T11:21:58;75797.34;;;-144.09;59.38
8890;BME280;4481;43.406;24.454;2023-03-31T11:24:38;75791.06;;;-144.09;59.06
8890;BME280;4481;43.406;24.454;2023-03-31T11:27:23;75824.50;;;-144.09;60.51
8890;BME280;4481;43.406;24.454;2023-03-31T11:29:56;75809.88;;;-144.09;60.51
8890;BME280;4481;43.406;24.454;2023-03-31T11:32:37;75828.66;;;-144.09;60.55
8890;BME280;4481;43.406;24.454;2023-03-31T11:35:33;75811.97;;;-144.09;61.56
8890;BME280;4481;43.406;24.454;2023-03-31T11:38:21;75814.03;;;-144.09;60.36
8890;BME280;4481;43.406;24.454;2023-03-31T11:40:58;75799.41;;;-144.09;60.46
8890;BME280;4481;43.406;24.454;2023-03-31T11:43:29;75797.34;;;-144.09;60.01
8890;BME280;4481;43.406;24.454;2023-03-31T11:46:00;75786.88;;;-144.09;59.44
8890;BME280;4481;43.406;24.454;2023-03-31T11:48:36;75801.50;;;-144.09;59.47
8890;BME280;4481;43.406;24.454;2023-03-31T11:51:10;75803.59;;;-144.09;59.67
8890;BME280;4481;43.406;24.454;2023-03-31T11:53:39;75814.03;;;-144.09;58.50
8890;BME280;4481;43.406;24.454;2023-03-31T11:56:09;75795.25;;;-144.09;58.14
8890;BME280;4481;43.406;24.454;2023-03-31T11:58:38;75778.53;;;-144.09;58.36
8890;BME280;4481;43.406;24.454;2023-03-31T12:01:11;75763.91;;;-144.09;58.94
8890;BME280;4481;43.406;24.454;2023-03-31T12:03:50;75751.38;;;-144.09;59.05
8890;BME280;4481;43.406;24.454;2023-03-31T12:06:20;75747.19;;;-144.09;58.31
8890;BME280;4481;43.406;24.454;2023-03-31T12:08:53;75730.47;;;-144.09;58.02
8890;BME280;4481;43.406;24.454;2023-03-31T12:11:30;75753.47;;;-144.09;56.67
8890;BME280;4481;43.406;24.454;2023-03-31T12:14:09;75730.47;;;-144.09;57.50
8890;BME280;4481;43.406;24.454;2023-03-31T12:16:42;75734.66;;;-144.09;57.55
8890;BME280;4481;43.406;24.454;2023-03-31T12:19:16;75743.00;;;-144.09;58.50
8890;BME280;4481;43.406;24.454;2023-03-31T12:21:47;75757.63;;;-144.09;58.28
8890;BME280;4481;43.406;24.454;2023-03-31T12:24:15;75713.78;;;-144.09;58.17
8890;BME280;4481;43.406;24.454;2023-03-31T12:26:49;75680.34;;;-144.09;57.64
8890;BME280;4481;43.406;24.454;2023-03-31T12:29:24;75663.63;;;-144.09;56.87
8890;BME280;4481;43.406;24.454;2023-03-31T12:31:54;75646.91;;;-144.09;56.06
8890;BME280;4481;43.406;24.454;2023-03-31T12:34:23;75626.03;;;-144.09;56.84
8890;BME280;4481;43.406;24.454;2023-03-31T12:37:04;75598.88;;;-144.09;54.98
8890;BME280;4481;43.406;24.454;2023-03-31T12:39:40;75603.06;;;-144.09;54.89
8890;BME280;4481;43.406;24.454;2023-03-31T12:45:22;75605.13;;;-144.09;54.39
8890;BME280;4481;43.406;24.454;2023-03-31T12:51:01;75619.75;;;-144.09;54.36
8890;BME280;4481;43.406;24.454;2023-03-31T12:53:36;75590.50;;;-144.09;54.73
8890;BME280;4481;43.406;24.454;2023-03-31T12:56:08;75590.50;;;-144.09;53.64
8890;BME280;4481;43.406;24.454;2023-03-31T12:58:42;75605.13;;;-144.09;55.52
8890;BME280;4481;43.406;24.454;2023-03-31T13:01:16;75632.28;;;-144.09;55.01
8890;BME280;4481;43.406;24.454;2023-03-31T13:03:52;75626.03;;;-144.09;55.31
8890;BME280;4481;43.406;24.454;2023-03-31T13:06:47;75594.69;;;-144.09;54.80
8890;BME280;4481;43.406;24.454;2023-03-31T13:09:39;75611.41;;;-144.09;52.97
8890;BME280;4481;43.406;24.454;2023-03-31T13:12:07;75623.94;;;-144.09;53.54
8890;BME280;4481;43.406;24.454;2023-03-31T13:14:36;75613.50;;;-144.09;53.36
8890;BME280;4481;43.406;24.454;2023-03-31T13:17:12;75644.84;;;-144.09;51.93
8890;BME280;4481;43.406;24.454;2023-03-31T13:19:40;75657.38;;;-144.09;52.24